sensor_id;sensor_type;location;lat;lon;timestamp;temperature;humidity
56542;DHT22;42438;53.174;6.730;2023-02-01T00:01:55;6.30;99.90
56542;DHT22;42438;53.174;6.730;2023-02-01T00:04:27;6.20;99.90
56542;DHT22;42438;53.174;6.730;2023-02-01T00:06:57;6.30;99.90
56542;DHT22;42438;53.174;6.730;2023-02-01T00:09:28;5.60;99.90
56542;DHT22;42438;53.174;6.730;2023-02-01T00:11:59;5.80;99.90
56542;DHT22;42438;53.174;6.730;2023-02-01T00:14:32;6.00;99.90
56542;DHT22;42438;53.174;6.730;2023-02-01T00:17:08;6.10;99.90
56542;DHT22;42438;53.174;6.730;2023-02-01T00:19:39;6.00;99.90
56542;DHT22;42438;53.174;6.730;2023-02-01T00:22:09;6.00;99.90
56542;DHT22;42438;53.174;6.730;2023-02-01T00:24:40;6.20;99.90
56542;DHT22;42438;53.174;6.730;2023-02-01T00:27:11;6.10;99.90
56542;DHT22;42438;53.174;6.730;2023-02-01T00:29:44;6.00;99.90
56542;DHT22;42438;53.174;6.730;2023-02-01T00:32:15;5.80;99.90
56542;DHT22;42438;53.174;6.730;2023-02-01T00:34:45;6.10;99.90
56542;DHT22;42438;53.174;6.730;2023-02-01T00:37:16;6.00;99.90
56542;DHT22;42438;53.174;6.730;2023-02-01T00:39:47;6.00;99.90
56542;DHT22;42438;53.174;6.730;2023-02-01T00:42:17;6.20;99.90
56542;DHT22;42438;53.174;6.730;2023-02-01T00:44:48;6.10;99.90
56542;DHT22;42438;53.174;6.730;2023-02-01T00:47:19;6.50;99.90
56542;DHT22;42438;53.174;6.730;2023-02-01T00:49:50;6.10;99.90
56542;DHT22;42438;53.174;6.730;2023-02-01T00:52:21;6.30;99.90
56542;DHT22;42438;53.174;6.730;2023-02-01T00:54:51;5.70;99.90
56542;DHT22;42438;53.174;6.730;2023-02-01T00:57:22;6.20;99.90
56542;DHT22;42438;53.174;6.730;2023-02-01T00:59:52;5.80;99.90
56542;DHT22;42438;53.174;6.730;2023-02-01T01:02:26;6.60;99.90
56542;DHT22;42438;53.174;6.730;2023-02-01T01:04:57;6.00;99.90
56542;DHT22;42438;53.174;6.730;2023-02-01T01:07:27;6.50;99.90
56542;DHT22;42438;53.174;6.730;2023-02-01T01:09:58;6.10;99.90
56542;DHT22;42438;53.174;6.730;2023-02-01T01:12:29;6.00;99.90
56542;DHT22;42438;53.174;6.730;2023-02-01T01:15:00;6.20;99.90
56542;DHT22;42438;53.174;6.730;2023-02-01T01:17:31;6.20;99.90
56542;DHT22;42438;53.174;6.730;2023-02-01T01:20:03;6.20;99.90
56542;DHT22;42438;53.174;6.730;2023-02-01T01:22:33;5.80;99.90
56542;DHT22;42438;53.174;6.730;2023-02-01T01:25:04;6.20;99.90
56542;DHT22;42438;53.174;6.730;2023-02-01T01:27:35;6.00;99.90
56542;DHT22;42438;53.174;6.730;2023-02-01T01:30:06;6.20;99.90
56542;DHT22;42438;53.174;6.730;2023-02-01T01:32:37;5.90;99.90
56542;DHT22;42438;53.174;6.730;2023-02-01T01:35:08;6.20;99.90
56542;DHT22;42438;53.174;6.730;2023-02-01T01:37:40;5.70;99.90
56542;DHT22;42438;53.174;6.730;2023-02-01T01:40:11;6.40;99.90
56542;DHT22;42438;53.174;6.730;2023-02-01T01:42:43;5.90;99.90
56542;DHT22;42438;53.174;6.730;2023-02-01T01:45:41;6.30;99.90
56542;DHT22;42438;53.174;6.730;2023-02-01T01:48:21;6.10;99.90
56542;DHT22;42438;53.174;6.730;2023-02-01T01:50:59;5.90;99.90
56542;DHT22;42438;53.174;6.730;2023-02-01T01:53:42;6.20;99.90
56542;DHT22;42438;53.174;6.730;2023-02-01T01:56:15;6.30;99.90
56542;DHT22;42438;53.174;6.730;2023-02-01T01:58:45;6.20;99.90
56542;DHT22;42438;53.174;6.730;2023-02-01T02:01:16;6.50;99.90
56542;DHT22;42438;53.174;6.730;2023-02-01T02:03:47;6.40;99.90
56542;DHT22;42438;53.174;6.730;2023-02-01T02:08:52;6.30;99.90
56542;DHT22;42438;53.174;6.730;2023-02-01T02:11:23;6.10;99.90
56542;DHT22;42438;53.174;6.730;2023-02-01T02:13:56;6.00;99.90
56542;DHT22;42438;53.174;6.730;2023-02-01T02:16:36;6.00;99.90
56542;DHT22;42438;53.174;6.730;2023-02-01T02:46:20;5.40;99.90
56542;DHT22;42438;53.174;6.730;2023-02-01T02:48:47;5.80;99.90
56542;DHT22;42438;53.174;6.730;2023-02-01T02:51:22;5.90;99.90
56542;DHT22;42438;53.174;6.730;2023-02-01T02:54:13;5.30;99.90
56542;DHT22;42438;53.174;6.730;2023-02-01T02:57:07;5.50;99.90
56542;DHT22;42438;53.174;6.730;2023-02-01T02:59:58;5.60;99.90
56542;DHT22;42438;53.174;6.730;2023-02-01T03:02:49;5.50;99.90
56542;DHT22;42438;53.174;6.730;2023-02-01T03:05:45;5.50;99.90
56542;DHT22;42438;53.174;6.730;2023-02-01T03:08:27;5.60;99.90
56542;DHT22;42438;53.174;6.730;2023-02-01T03:11:09;5.50;99.90
56542;DHT22;42438;53.174;6.730;2023-02-01T03:13:59;5.60;99.90
56542;DHT22;42438;53.174;6.730;2023-02-01T03:16:46;5.60;99.90
56542;DHT22;42438;53.174;6.730;2023-02-01T03:19:34;5.50;99.90
56542;DHT22;42438;53.174;6.730;2023-02-01T03:22:09;5.50;99.90
56542;DHT22;42438;53.174;6.730;2023-02-01T03:32:51;5.70;99.90
56542;DHT22;42438;53.174;6.730;2023-02-01T03:35:40;6.30;99.90
56542;DHT22;42438;53.174;6.730;2023-02-01T03:41:18;6.10;99.90
56542;DHT22;42438;53.174;6.730;2023-02-01T03:44:08;5.90;99.90
56542;DHT22;42438;53.174;6.730;2023-02-01T03:46:49;5.70;99.90
56542;DHT22;42438;53.174;6.730;2023-02-01T03:49:29;6.20;99.90
56542;DHT22;42438;53.174;6.730;2023-02-01T03:52:01;5.90;99.90
56542;DHT22;42438;53.174;6.730;2023-02-01T03:54:33;6.00;99.90
56542;DHT22;42438;53.174;6.730;2023-02-01T03:57:09;6.20;99.90
56542;DHT22;42438;53.174;6.730;2023-02-01T03:59:43;6.30;99.90
56542;DHT22;42438;53.174;6.730;2023-02-01T04:02:14;5.90;99.90
56542;DHT22;42438;53.174;6.730;2023-02-01T04:04:45;6.20;99.90
56542;DHT22;42438;53.174;6.730;2023-02-01T04:07:16;6.10;99.90
56542;DHT22;42438;53.174;6.730;2023-02-01T04:09:47;6.00;99.90
56542;DHT22;42438;53.174;6.730;2023-02-01T04:12:18;5.90;99.90
56542;DHT22;42438;53.174;6.730;2023-02-01T04:14:48;6.00;99.90
56542;DHT22;42438;53.174;6.730;2023-02-01T04:17:19;6.40;99.90
56542;DHT22;42438;53.174;6.730;2023-02-01T04:19:50;6.10;99.90
56542;DHT22;42438;53.174;6.730;2023-02-01T04:22:20;6.00;99.90
56542;DHT22;42438;53.174;6.730;2023-02-01T04:24:51;5.90;99.90
56542;DHT22;42438;53.174;6.730;2023-02-01T04:27:22;6.10;99.90
56542;DHT22;42438;53.174;6.730;2023-02-01T04:29:53;6.10;99.90
56542;DHT22;42438;53.174;6.730;2023-02-01T04:32:23;6.20;99.90
56542;DHT22;42438;53.174;6.730;2023-02-01T04:34:54;6.00;99.90
56542;DHT22;42438;53.174;6.730;2023-02-01T04:37:25;6.20;99.90
56542;DHT22;42438;53.174;6.730;2023-02-01T04:39:55;5.80;99.90
56542;DHT22;42438;53.174;6.730;2023-02-01T04:42:27;6.10;99.90
56542;DHT22;42438;53.174;6.730;2023-02-01T04:44:57;6.00;99.90
56542;DHT22;42438;53.174;6.730;2023-02-01T04:47:28;6.20;99.90
56542;DHT22;42438;53.174;6.730;2023-02-01T04:49:59;6.70;99.90
56542;DHT22;42438;53.174;6.730;2023-02-01T04:52:29;5.80;99.90
56542;DHT22;42438;53.174;6.730;2023-02-01T04:55:00;6.00;99.90
56542;DHT22;42438;53.174;6.730;2023-02-01T04:57:32;6.10;99.90
56542;DHT22;42438;53.174;6.730;2023-02-01T05:00:03;6.00;99.90
56542;DHT22;42438;53.174;6.730;2023-02-01T05:02:34;6.00;99.90
56542;DHT22;42438;53.174;6.730;2023-02-01T05:05:06;6.00;99.90
56542;DHT22;42438;53.174;6.730;2023-02-01T05:07:37;5.80;99.90
56542;DHT22;42438;53.174;6.730;2023-02-01T05:10:08;6.30;99.90
56542;DHT22;42438;53.174;6.730;2023-02-01T05:12:39;5.90;99.90
56542;DHT22;42438;53.174;6.730;2023-02-01T05:15:29;6.20;99.90
56542;DHT22;42438;53.174;6.730;2023-02-01T05:18:00;6.40;99.90
56542;DHT22;42438;53.174;6.730;2023-02-01T05:20:31;6.00;99.90
56542;DHT22;42438;53.174;6.730;2023-02-01T05:23:01;6.40;99.90
56542;DHT22;42438;53.174;6.730;2023-02-01T05:25:32;6.20;99.90
56542;DHT22;42438;53.174;6.730;2023-02-01T05:28:03;6.30;99.90
56542;DHT22;42438;53.174;6.730;2023-02-01T05:30:33;5.80;99.90
56542;DHT22;42438;53.174;6.730;2023-02-01T05:33:05;6.20;99.90
56542;DHT22;42438;53.174;6.730;2023-02-01T05:35:36;6.00;99.90
56542;DHT22;42438;53.174;6.730;2023-02-01T05:38:06;6.50;99.90
56542;DHT22;42438;53.174;6.730;2023-02-01T05:40:37;6.10;99.90
56542;DHT22;42438;53.174;6.730;2023-02-01T05:43:08;6.30;99.90
56542;DHT22;42438;53.174;6.730;2023-02-01T05:45:38;6.00;99.90
56542;DHT22;42438;53.174;6.730;2023-02-01T05:48:09;6.20;99.90
56542;DHT22;42438;53.174;6.730;2023-02-01T05:50:40;6.40;99.90
56542;DHT22;42438;53.174;6.730;2023-02-01T05:53:11;6.30;99.90
56542;DHT22;42438;53.174;6.730;2023-02-01T05:55:42;6.00;99.90
56542;DHT22;42438;53.174;6.730;2023-02-01T05:58:12;6.20;99.90
56542;DHT22;42438;53.174;6.730;2023-02-01T06:00:43;6.50;99.90
56542;DHT22;42438;53.174;6.730;2023-02-01T06:03:14;6.10;99.90
56542;DHT22;42438;53.174;6.730;2023-02-01T06:05:46;6.10;99.90
56542;DHT22;42438;53.174;6.730;2023-02-01T06:08:16;6.70;99.90
56542;DHT22;42438;53.174;6.730;2023-02-01T06:10:47;6.40;99.90
56542;DHT22;42438;53.174;6.730;2023-02-01T06:13:18;6.50;99.90
56542;DHT22;42438;53.174;6.730;2023-02-01T06:15:50;6.60;99.90
56542;DHT22;42438;53.174;6.730;2023-02-01T06:18:21;6.30;99.90
56542;DHT22;42438;53.174;6.730;2023-02-01T06:20:56;6.10;99.90
56542;DHT22;42438;53.174;6.730;2023-02-01T06:23:28;6.10;99.90
56542;DHT22;42438;53.174;6.730;2023-02-01T06:26:01;6.00;99.90
56542;DHT22;42438;53.174;6.730;2023-02-01T06:28:33;6.10;99.90
56542;DHT22;42438;53.174;6.730;2023-02-01T06:31:05;6.30;99.90
56542;DHT22;42438;53.174;6.730;2023-02-01T06:33:36;6.00;99.90
56542;DHT22;42438;53.174;6.730;2023-02-01T06:36:10;6.20;99.90
56542;DHT22;42438;53.174;6.730;2023-02-01T06:38:42;5.90;99.90
56542;DHT22;42438;53.174;6.730;2023-02-01T06:41:13;6.20;99.90
56542;DHT22;42438;53.174;6.730;2023-02-01T06:43:44;6.50;99.90
56542;DHT22;42438;53.174;6.730;2023-02-01T06:46:15;6.40;99.90
56542;DHT22;42438;53.174;6.730;2023-02-01T06:48:46;6.60;99.90
56542;DHT22;42438;53.174;6.730;2023-02-01T06:51:25;6.50;99.90
56542;DHT22;42438;53.174;6.730;2023-02-01T06:53:56;6.10;99.90
56542;DHT22;42438;53.174;6.730;2023-02-01T06:56:27;6.60;99.90
56542;DHT22;42438;53.174;6.730;2023-02-01T06:58:57;6.10;99.90
56542;DHT22;42438;53.174;6.730;2023-02-01T07:01:28;6.10;99.90
56542;DHT22;42438;53.174;6.730;2023-02-01T07:03:59;6.00;99.90
56542;DHT22;42438;53.174;6.730;2023-02-01T07:06:30;6.20;99.90
56542;DHT22;42438;53.174;6.730;2023-02-01T07:09:00;6.70;99.90
56542;DHT22;42438;53.174;6.730;2023-02-01T07:11:31;6.50;99.90
56542;DHT22;42438;53.174;6.730;2023-02-01T07:14:02;6.40;99.90
56542;DHT22;42438;53.174;6.730;2023-02-01T07:16:33;6.30;99.90
56542;DHT22;42438;53.174;6.730;2023-02-01T07:19:03;6.20;99.90
56542;DHT22;42438;53.174;6.730;2023-02-01T07:21:34;6.30;99.90
56542;DHT22;42438;53.174;6.730;2023-02-01T07:24:05;6.40;99.90
56542;DHT22;42438;53.174;6.730;2023-02-01T07:26:36;6.20;99.90
56542;DHT22;42438;53.174;6.730;2023-02-01T07:29:06;6.10;99.90
56542;DHT22;42438;53.174;6.730;2023-02-01T07:31:37;6.40;99.90
56542;DHT22;42438;53.174;6.730;2023-02-01T07:34:08;6.10;99.90
56542;DHT22;42438;53.174;6.730;2023-02-01T07:36:38;6.60;99.90
56542;DHT22;42438;53.174;6.730;2023-02-01T07:39:09;6.50;99.90
56542;DHT22;42438;53.174;6.730;2023-02-01T07:41:40;6.70;99.90
56542;DHT22;42438;53.174;6.730;2023-02-01T07:44:10;6.70;99.90
56542;DHT22;42438;53.174;6.730;2023-02-01T07:46:41;6.50;99.90
56542;DHT22;42438;53.174;6.730;2023-02-01T07:49:13;6.50;99.90
56542;DHT22;42438;53.174;6.730;2023-02-01T07:51:44;6.70;99.90
56542;DHT22;42438;53.174;6.730;2023-02-01T07:54:14;6.40;99.90
56542;DHT22;42438;53.174;6.730;2023-02-01T07:56:45;6.50;99.90
56542;DHT22;42438;53.174;6.730;2023-02-01T07:59:16;6.40;99.90
56542;DHT22;42438;53.174;6.730;2023-02-01T08:01:46;6.10;99.90
56542;DHT22;42438;53.174;6.730;2023-02-01T08:04:17;6.10;99.90
56542;DHT22;42438;53.174;6.730;2023-02-01T08:06:48;6.60;99.90
56542;DHT22;42438;53.174;6.730;2023-02-01T08:09:18;6.20;99.90
56542;DHT22;42438;53.174;6.730;2023-02-01T08:11:49;6.40;99.90
56542;DHT22;42438;53.174;6.730;2023-02-01T08:14:20;6.50;99.90
56542;DHT22;42438;53.174;6.730;2023-02-01T08:16:50;6.50;99.90
56542;DHT22;42438;53.174;6.730;2023-02-01T08:19:21;6.60;99.90
56542;DHT22;42438;53.174;6.730;2023-02-01T08:21:52;6.90;99.90
56542;DHT22;42438;53.174;6.730;2023-02-01T08:24:23;6.50;99.90
56542;DHT22;42438;53.174;6.730;2023-02-01T08:26:53;6.70;99.90
56542;DHT22;42438;53.174;6.730;2023-02-01T08:29:24;6.90;99.90
56542;DHT22;42438;53.174;6.730;2023-02-01T08:31:55;6.30;99.90
56542;DHT22;42438;53.174;6.730;2023-02-01T08:34:25;6.90;99.90
56542;DHT22;42438;53.174;6.730;2023-02-01T08:36:56;6.50;99.90
56542;DHT22;42438;53.174;6.730;2023-02-01T08:39:30;6.70;99.90
56542;DHT22;42438;53.174;6.730;2023-02-01T08:42:01;6.20;99.90
56542;DHT22;42438;53.174;6.730;2023-02-01T08:44:50;5.60;99.90
56542;DHT22;42438;53.174;6.730;2023-02-01T08:47:20;6.80;99.90
56542;DHT22;42438;53.174;6.730;2023-02-01T08:49:51;6.40;99.90
56542;DHT22;42438;53.174;6.730;2023-02-01T08:52:23;6.30;99.90
56542;DHT22;42438;53.174;6.730;2023-02-01T08:54:54;6.40;99.90
56542;DHT22;42438;53.174;6.730;2023-02-01T08:57:25;6.70;99.90
56542;DHT22;42438;53.174;6.730;2023-02-01T08:59:55;7.10;99.90
56542;DHT22;42438;53.174;6.730;2023-02-01T09:02:26;6.70;99.90
56542;DHT22;42438;53.174;6.730;2023-02-01T09:04:57;6.90;99.90
56542;DHT22;42438;53.174;6.730;2023-02-01T09:07:27;6.70;99.90
56542;DHT22;42438;53.174;6.730;2023-02-01T09:09:58;6.80;99.90
56542;DHT22;42438;53.174;6.730;2023-02-01T09:12:32;6.40;99.90
56542;DHT22;42438;53.174;6.730;2023-02-01T09:15:03;6.90;99.90
56542;DHT22;42438;53.174;6.730;2023-02-01T09:17:37;6.40;99.90
56542;DHT22;42438;53.174;6.730;2023-02-01T09:20:09;6.80;99.90
56542;DHT22;42438;53.174;6.730;2023-02-01T09:22:40;6.20;99.90
56542;DHT22;42438;53.174;6.730;2023-02-01T09:25:11;6.60;99.90
56542;DHT22;42438;53.174;6.730;2023-02-01T09:27:41;6.40;99.90
56542;DHT22;42438;53.174;6.730;2023-02-01T09:30:12;6.60;99.90
56542;DHT22;42438;53.174;6.730;2023-02-01T09:32:43;6.10;99.90
56542;DHT22;42438;53.174;6.730;2023-02-01T09:35:14;6.60;99.90
56542;DHT22;42438;53.174;6.730;2023-02-01T09:37:44;6.60;99.90
56542;DHT22;42438;53.174;6.730;2023-02-01T09:40:16;6.40;99.90
56542;DHT22;42438;53.174;6.730;2023-02-01T09:43:28;6.20;99.90
56542;DHT22;42438;53.174;6.730;2023-02-01T09:46:24;6.50;99.90
56542;DHT22;42438;53.174;6.730;2023-02-01T09:49:04;6.30;99.90
56542;DHT22;42438;53.174;6.730;2023-02-01T09:51:42;6.60;99.90
56542;DHT22;42438;53.174;6.730;2023-02-01T09:54:20;7.00;99.90
56542;DHT22;42438;53.174;6.730;2023-02-01T10:00:09;6.40;99.90
56542;DHT22;42438;53.174;6.730;2023-02-01T10:02:45;6.20;99.90
56542;DHT22;42438;53.174;6.730;2023-02-01T10:05:21;6.50;99.90
56542;DHT22;42438;53.174;6.730;2023-02-01T10:17:28;6.40;99.90
56542;DHT22;42438;53.174;6.730;2023-02-01T10:23:08;5.90;99.90
56542;DHT22;42438;53.174;6.730;2023-02-01T10:26:00;5.90;99.90
56542;DHT22;42438;53.174;6.730;2023-02-01T10:28:36;6.20;99.90
56542;DHT22;42438;53.174;6.730;2023-02-01T10:31:08;6.20;99.90
56542;DHT22;42438;53.174;6.730;2023-02-01T10:33:43;5.60;99.90
56542;DHT22;42438;53.174;6.730;2023-02-01T10:37:26;6.30;99.90
56542;DHT22;42438;53.174;6.730;2023-02-01T10:39:37;6.10;99.90
56542;DHT22;42438;53.174;6.730;2023-02-01T10:42:08;6.10;99.90
56542;DHT22;42438;53.174;6.730;2023-02-01T10:44:43;6.30;99.90
56542;DHT22;42438;53.174;6.730;2023-02-01T10:47:15;6.30;99.90
56542;DHT22;42438;53.174;6.730;2023-02-01T10:58:16;6.40;99.90
56542;DHT22;42438;53.174;6.730;2023-02-01T11:00:52;6.70;99.90
56542;DHT22;42438;53.174;6.730;2023-02-01T11:03:40;6.80;99.90
56542;DHT22;42438;53.174;6.730;2023-02-01T11:06:27;6.60;99.90
56542;DHT22;42438;53.174;6.730;2023-02-01T11:09:22;6.70;99.90
56542;DHT22;42438;53.174;6.730;2023-02-01T11:16:59;6.80;99.90
56542;DHT22;42438;53.174;6.730;2023-02-01T11:19:30;6.50;99.90
56542;DHT22;42438;53.174;6.730;2023-02-01T11:22:01;6.40;99.90
56542;DHT22;42438;53.174;6.730;2023-02-01T11:24:35;6.50;99.90
56542;DHT22;42438;53.174;6.730;2023-02-01T11:27:17;6.80;99.90
56542;DHT22;42438;53.174;6.730;2023-02-01T11:29:58;6.30;99.90
56542;DHT22;42438;53.174;6.730;2023-02-01T11:32:30;6.10;99.90
56542;DHT22;42438;53.174;6.730;2023-02-01T11:35:04;6.40;99.90
56542;DHT22;42438;53.174;6.730;2023-02-01T11:37:40;6.10;99.90
56542;DHT22;42438;53.174;6.730;2023-02-01T11:42:59;6.10;99.90
56542;DHT22;42438;53.174;6.730;2023-02-01T11:45:31;5.90;99.90
56542;DHT22;42438;53.174;6.730;2023-02-01T11:48:09;5.80;99.90
56542;DHT22;42438;53.174;6.730;2023-02-01T12:10:29;3.70;99.90
56542;DHT22;42438;53.174;6.730;2023-02-01T12:31:10;4.30;99.90
56542;DHT22;42438;53.174;6.730;2023-02-01T12:36:46;5.00;99.90
56542;DHT22;42438;53.174;6.730;2023-02-01T12:39:31;5.40;99.90
56542;DHT22;42438;53.174;6.730;2023-02-01T12:42:23;5.60;99.90
56542;DHT22;42438;53.174;6.730;2023-02-01T12:47:42;6.60;99.90
56542;DHT22;42438;53.174;6.730;2023-02-01T12:52:51;7.30;99.90
56542;DHT22;42438;53.174;6.730;2023-02-01T12:55:42;7.40;99.90
56542;DHT22;42438;53.174;6.730;2023-02-01T12:58:29;7.70;99.90
56542;DHT22;42438;53.174;6.730;2023-02-01T13:01:07;7.70;99.90
56542;DHT22;42438;53.174;6.730;2023-02-01T13:06:24;7.30;99.90
56542;DHT22;42438;53.174;6.730;2023-02-01T13:12:00;7.40;99.90
56542;DHT22;42438;53.174;6.730;2023-02-01T13:14:44;7.80;99.90
56542;DHT22;42438;53.174;6.730;2023-02-01T13:17:22;7.50;99.90
56542;DHT22;42438;53.174;6.730;2023-02-01T13:20:13;7.70;99.90
56542;DHT22;42438;53.174;6.730;2023-02-01T13:22:52;7.50;99.90
56542;DHT22;42438;53.174;6.730;2023-02-01T13:28:04;7.50;99.90
56542;DHT22;42438;53.174;6.730;2023-02-01T13:36:47;7.80;99.90
56542;DHT22;42438;53.174;6.730;2023-02-01T13:42:30;7.70;99.90
56542;DHT22;42438;53.174;6.730;2023-02-01T13:45:04;7.70;99.90
56542;DHT22;42438;53.174;6.730;2023-02-01T13:47:41;7.80;99.90
56542;DHT22;42438;53.174;6.730;2023-02-01T13:55:32;7.70;99.90
56542;DHT22;42438;53.174;6.730;2023-02-01T13:58:21;8.00;99.90
56542;DHT22;42438;53.174;6.730;2023-02-01T14:03:56;7.60;99.90
56542;DHT22;42438;53.174;6.730;2023-02-01T14:11:44;7.90;99.90
56542;DHT22;42438;53.174;6.730;2023-02-01T14:19:25;7.50;99.90
56542;DHT22;42438;53.174;6.730;2023-02-01T14:24:55;7.60;99.90
56542;DHT22;42438;53.174;6.730;2023-02-01T14:27:30;7.60;99.90
56542;DHT22;42438;53.174;6.730;2023-02-01T14:30:11;7.70;99.90
56542;DHT22;42438;53.174;6.730;2023-02-01T14:32:46;7.50;99.90
56542;DHT22;42438;53.174;6.730;2023-02-01T14:35:23;7.70;99.90
56542;DHT22;42438;53.174;6.730;2023-02-01T14:38:00;7.90;99.90
56542;DHT22;42438;53.174;6.730;2023-02-01T14:40:33;7.80;99.90
56542;DHT22;42438;53.174;6.730;2023-02-01T14:43:08;7.80;99.90
56542;DHT22;42438;53.174;6.730;2023-02-01T14:50:46;7.70;99.90
56542;DHT22;42438;53.174;6.730;2023-02-01T14:53:26;7.90;99.90
56542;DHT22;42438;53.174;6.730;2023-02-01T14:56:08;7.60;99.90
56542;DHT22;42438;53.174;6.730;2023-02-01T14:58:48;7.70;99.90
56542;DHT22;42438;53.174;6.730;2023-02-01T15:06:36;7.90;99.90
56542;DHT22;42438;53.174;6.730;2023-02-01T15:09:11;7.40;99.90
56542;DHT22;42438;53.174;6.730;2023-02-01T15:14:46;7.10;99.90
56542;DHT22;42438;53.174;6.730;2023-02-01T15:17:24;7.10;99.90
56542;DHT22;42438;53.174;6.730;2023-02-01T15:19:57;7.50;99.90
56542;DHT22;42438;53.174;6.730;2023-02-01T15:22:29;7.30;99.90
56542;DHT22;42438;53.174;6.730;2023-02-01T15:25:00;7.40;99.90
56542;DHT22;42438;53.174;6.730;2023-02-01T15:27:37;7.50;99.90
56542;DHT22;42438;53.174;6.730;2023-02-01T15:30:19;7.40;99.90
56542;DHT22;42438;53.174;6.730;2023-02-01T15:32:52;7.30;99.90
56542;DHT22;42438;53.174;6.730;2023-02-01T15:38:47;7.20;99.90
56542;DHT22;42438;53.174;6.730;2023-02-01T15:41:20;7.60;99.90
56542;DHT22;42438;53.174;6.730;2023-02-01T15:46:31;7.50;99.90
56542;DHT22;42438;53.174;6.730;2023-02-01T15:49:05;7.20;99.90
56542;DHT22;42438;53.174;6.730;2023-02-01T15:51:45;7.70;99.90
56542;DHT22;42438;53.174;6.730;2023-02-01T15:54:20;7.40;99.90
56542;DHT22;42438;53.174;6.730;2023-02-01T15:56:54;7.50;99.90
56542;DHT22;42438;53.174;6.730;2023-02-01T15:59:31;7.40;99.90
56542;DHT22;42438;53.174;6.730;2023-02-01T16:02:03;7.10;99.90
56542;DHT22;42438;53.174;6.730;2023-02-01T16:04:46;7.30;99.90
56542;DHT22;42438;53.174;6.730;2023-02-01T16:07:30;7.60;99.90
56542;DHT22;42438;53.174;6.730;2023-02-01T16:10:03;6.80;99.90
56542;DHT22;42438;53.174;6.730;2023-02-01T16:12:49;6.90;99.90
56542;DHT22;42438;53.174;6.730;2023-02-01T16:15:19;6.90;99.90
56542;DHT22;42438;53.174;6.730;2023-02-01T16:17:50;7.40;99.90
56542;DHT22;42438;53.174;6.730;2023-02-01T16:20:21;6.60;99.90
56542;DHT22;42438;53.174;6.730;2023-02-01T16:22:51;6.20;99.90
56542;DHT22;42438;53.174;6.730;2023-02-01T16:25:22;6.70;99.90
56542;DHT22;42438;53.174;6.730;2023-02-01T16:27:53;6.80;99.90
56542;DHT22;42438;53.174;6.730;2023-02-01T16:30:24;6.50;99.90
56542;DHT22;42438;53.174;6.730;2023-02-01T16:32:56;6.70;99.90
56542;DHT22;42438;53.174;6.730;2023-02-01T16:35:35;6.70;99.90
56542;DHT22;42438;53.174;6.730;2023-02-01T16:38:15;6.50;99.90
56542;DHT22;42438;53.174;6.730;2023-02-01T16:40:49;7.10;99.90
56542;DHT22;42438;53.174;6.730;2023-02-01T16:43:23;6.80;99.90
56542;DHT22;42438;53.174;6.730;2023-02-01T16:45:54;7.00;99.90
56542;DHT22;42438;53.174;6.730;2023-02-01T16:48:31;6.50;99.90
56542;DHT22;42438;53.174;6.730;2023-02-01T16:51:08;6.90;99.90
56542;DHT22;42438;53.174;6.730;2023-02-01T16:53:40;6.70;99.90
56542;DHT22;42438;53.174;6.730;2023-02-01T16:56:16;6.80;99.90
56542;DHT22;42438;53.174;6.730;2023-02-01T16:58:48;6.60;99.90
56542;DHT22;42438;53.174;6.730;2023-02-01T17:01:19;6.60;99.90
56542;DHT22;42438;53.174;6.730;2023-02-01T17:03:49;6.30;99.90
56542;DHT22;42438;53.174;6.730;2023-02-01T17:06:22;6.20;99.90
56542;DHT22;42438;53.174;6.730;2023-02-01T17:08:55;6.20;99.90
56542;DHT22;42438;53.174;6.730;2023-02-01T17:11:28;6.30;99.90
56542;DHT22;42438;53.174;6.730;2023-02-01T17:14:17;6.20;99.90
56542;DHT22;42438;53.174;6.730;2023-02-01T17:16:49;6.60;99.90
56542;DHT22;42438;53.174;6.730;2023-02-01T17:19:22;6.20;99.90
56542;DHT22;42438;53.174;6.730;2023-02-01T17:21:55;6.10;99.90
56542;DHT22;42438;53.174;6.730;2023-02-01T17:24:30;6.50;99.90
56542;DHT22;42438;53.174;6.730;2023-02-01T17:27:01;6.50;99.90
56542;DHT22;42438;53.174;6.730;2023-02-01T17:29:33;6.50;99.90
56542;DHT22;42438;53.174;6.730;2023-02-01T17:32:04;6.70;99.90
56542;DHT22;42438;53.174;6.730;2023-02-01T17:34:35;6.20;99.90
56542;DHT22;42438;53.174;6.730;2023-02-01T17:37:25;6.40;99.90
56542;DHT22;42438;53.174;6.730;2023-02-01T17:39:56;6.40;99.90
56542;DHT22;42438;53.174;6.730;2023-02-01T17:42:28;6.60;99.90
56542;DHT22;42438;53.174;6.730;2023-02-01T17:45:01;6.20;99.90
56542;DHT22;42438;53.174;6.730;2023-02-01T17:47:41;6.40;99.90
56542;DHT22;42438;53.174;6.730;2023-02-01T17:50:12;6.60;99.90
56542;DHT22;42438;53.174;6.730;2023-02-01T17:52:43;6.30;99.90
56542;DHT22;42438;53.174;6.730;2023-02-01T17:55:18;6.50;99.90
56542;DHT22;42438;53.174;6.730;2023-02-01T17:57:49;6.50;99.90
56542;DHT22;42438;53.174;6.730;2023-02-01T18:00:20;6.40;99.90
56542;DHT22;42438;53.174;6.730;2023-02-01T18:02:51;6.10;99.90
56542;DHT22;42438;53.174;6.730;2023-02-01T18:05:27;6.60;99.90
56542;DHT22;42438;53.174;6.730;2023-02-01T18:07:58;6.50;99.90
56542;DHT22;42438;53.174;6.730;2023-02-01T18:10:29;6.40;99.90
56542;DHT22;42438;53.174;6.730;2023-02-01T18:13:01;6.40;99.90
56542;DHT22;42438;53.174;6.730;2023-02-01T18:15:32;6.40;99.90
56542;DHT22;42438;53.174;6.730;2023-02-01T18:18:02;5.80;99.90
56542;DHT22;42438;53.174;6.730;2023-02-01T18:20:33;6.00;99.90
56542;DHT22;42438;53.174;6.730;2023-02-01T18:23:05;6.00;99.90
56542;DHT22;42438;53.174;6.730;2023-02-01T18:25:36;6.10;99.90
56542;DHT22;42438;53.174;6.730;2023-02-01T18:28:08;6.30;99.90
56542;DHT22;42438;53.174;6.730;2023-02-01T18:30:38;6.20;99.90
56542;DHT22;42438;53.174;6.730;2023-02-01T18:33:11;6.50;99.90
56542;DHT22;42438;53.174;6.730;2023-02-01T18:35:42;6.00;99.90
56542;DHT22;42438;53.174;6.730;2023-02-01T18:38:13;6.40;99.90
56542;DHT22;42438;53.174;6.730;2023-02-01T18:40:52;6.60;99.90
56542;DHT22;42438;53.174;6.730;2023-02-01T18:43:23;6.20;99.90
56542;DHT22;42438;53.174;6.730;2023-02-01T18:45:54;6.30;99.90
56542;DHT22;42438;53.174;6.730;2023-02-01T18:48:25;6.40;99.90
56542;DHT22;42438;53.174;6.730;2023-02-01T18:50:56;6.20;99.90
56542;DHT22;42438;53.174;6.730;2023-02-01T18:53:27;6.30;99.90
56542;DHT22;42438;53.174;6.730;2023-02-01T18:55:58;5.90;99.90
56542;DHT22;42438;53.174;6.730;2023-02-01T18:58:29;6.30;99.90
56542;DHT22;42438;53.174;6.730;2023-02-01T19:01:05;6.30;99.90
56542;DHT22;42438;53.174;6.730;2023-02-01T19:03:36;6.00;99.90
56542;DHT22;42438;53.174;6.730;2023-02-01T19:06:07;6.40;99.90
56542;DHT22;42438;53.174;6.730;2023-02-01T19:08:38;5.90;99.90
56542;DHT22;42438;53.174;6.730;2023-02-01T19:11:09;6.10;99.90
56542;DHT22;42438;53.174;6.730;2023-02-01T19:13:40;6.40;99.90
56542;DHT22;42438;53.174;6.730;2023-02-01T19:16:12;6.10;99.90
56542;DHT22;42438;53.174;6.730;2023-02-01T19:18:42;5.90;99.90
56542;DHT22;42438;53.174;6.730;2023-02-01T19:21:13;6.10;99.90
56542;DHT22;42438;53.174;6.730;2023-02-01T19:23:44;6.40;99.90
56542;DHT22;42438;53.174;6.730;2023-02-01T19:26:16;6.30;99.90